sensor_id;sensor_type;location;lat;lon;timestamp;pressure;altitude;pressure_sealevel;temperature;humidity
71917;BME280;59793;46.506;6.674;2023-04-30T00:00:39;97087.03;;;15.29;69.15
71917;BME280;59793;46.506;6.674;2023-04-30T00:03:04;97089.16;;;15.02;70.22
71917;BME280;59793;46.506;6.674;2023-04-30T00:05:30;97080.72;;;14.93;70.64
71917;BME280;59793;46.506;6.674;2023-04-30T00:07:55;97052.50;;;14.67;69.90
71917;BME280;59793;46.506;6.674;2023-04-30T00:10:20;97054.78;;;14.68;69.99
71917;BME280;59793;46.506;6.674;2023-04-30T00:12:46;97042.72;;;14.74;69.65
71917;BME280;59793;46.506;6.674;2023-04-30T00:15:11;97054.66;;;15.02;69.16
71917;BME280;59793;46.506;6.674;2023-04-30T00:17:36;97047.38;;;14.88;69.48
71917;BME280;59793;46.506;6.674;2023-04-30T00:20:02;97049.66;;;14.93;69.11
71917;BME280;59793;46.506;6.674;2023-04-30T00:22:28;97058.00;;;14.92;68.21
71917;BME280;59793;46.506;6.674;2023-04-30T00:24:53;97058.34;;;14.90;68.50
71917;BME280;59793;46.506;6.674;2023-04-30T00:27:18;97060.81;;;14.65;68.66
71917;BME280;59793;46.506;6.674;2023-04-30T00:29:44;97041.06;;;14.59;68.44
71917;BME280;59793;46.506;6.674;2023-04-30T00:32:09;97024.94;;;14.38;68.89
71917;BME280;59793;46.506;6.674;2023-04-30T00:34:35;97013.94;;;14.32;68.92
71917;BME280;59793;46.506;6.674;2023-04-30T00:37:00;97045.69;;;14.69;67.85
71917;BME280;59793;46.506;6.674;2023-04-30T00:39:25;96998.91;;;14.47;67.30
71917;BME280;59793;46.506;6.674;2023-04-30T00:41:50;97047.22;;;14.70;67.46
71917;BME280;59793;46.506;6.674;2023-04-30T00:44:16;97052.94;;;14.76;67.25
71917;BME280;59793;46.506;6.674;2023-04-30T00:46:41;97032.78;;;14.64;67.16
71917;BME280;59793;46.506;6.674;2023-04-30T00:49:07;97045.31;;;14.67;67.59
71917;BME280;59793;46.506;6.674;2023-04-30T00:51:34;97016.78;;;14.53;67.09
71917;BME280;59793;46.506;6.674;2023-04-30T00:54:00;97028.63;;;14.63;67.71
71917;BME280;59793;46.506;6.674;2023-04-30T00:56:27;97019.31;;;14.43;67.88
71917;BME280;59793;46.506;6.674;2023-04-30T00:58:54;97004.84;;;14.33;68.52
71917;BME280;59793;46.506;6.674;2023-04-30T01:01:23;97005.63;;;14.37;68.18
71917;BME280;59793;46.506;6.674;2023-04-30T01:03:49;97024.63;;;14.43;68.26
71917;BME280;59793;46.506;6.674;2023-04-30T01:06:14;97024.63;;;14.43;68.05
71917;BME280;59793;46.506;6.674;2023-04-30T01:08:40;97008.22;;;14.30;68.24
71917;BME280;59793;46.506;6.674;2023-04-30T01:11:16;97028.19;;;14.57;68.14
71917;BME280;59793;46.506;6.674;2023-04-30T01:14:18;97022.44;;;14.52;68.12
71917;BME280;59793;46.506;6.674;2023-04-30T01:16:49;97027.75;;;14.52;68.14
71917;BME280;59793;46.506;6.674;2023-04-30T01:25:02;97035.25;;;14.46;68.41
71917;BME280;59793;46.506;6.674;2023-04-30T01:30:12;97031.06;;;14.42;68.55
71917;BME280;59793;46.506;6.674;2023-04-30T01:32:37;97027.00;;;14.55;68.69
71917;BME280;59793;46.506;6.674;2023-04-30T01:35:03;97017.84;;;14.45;68.79
71917;BME280;59793;46.506;6.674;2023-04-30T01:50:52;97032.34;;;14.58;67.69
71917;BME280;59793;46.506;6.674;2023-04-30T01:53:32;97030.41;;;14.52;68.62
71917;BME280;59793;46.506;6.674;2023-04-30T01:56:05;97010.81;;;14.23;69.72
71917;BME280;59793;46.506;6.674;2023-04-30T01:58:34;97027.56;;;14.34;69.95
71917;BME280;59793;46.506;6.674;2023-04-30T02:01:01;96998.94;;;14.09;69.98
71917;BME280;59793;46.506;6.674;2023-04-30T02:03:26;96985.59;;;13.99;69.35
71917;BME280;59793;46.506;6.674;2023-04-30T02:05:52;97022.50;;;14.18;69.33
71917;BME280;59793;46.506;6.674;2023-04-30T02:08:17;96991.00;;;14.09;69.43
71917;BME280;59793;46.506;6.674;2023-04-30T02:10:42;96990.25;;;14.09;69.22
71917;BME280;59793;46.506;6.674;2023-04-30T02:13:08;96975.84;;;14.03;68.97
71917;BME280;59793;46.506;6.674;2023-04-30T02:15:33;97010.06;;;14.22;69.31
71917;BME280;59793;46.506;6.674;2023-04-30T02:17:59;96976.31;;;13.75;70.05
71917;BME280;59793;46.506;6.674;2023-04-30T02:20:24;97017.22;;;14.18;69.47
71917;BME280;59793;46.506;6.674;2023-04-30T02:22:50;97004.34;;;14.20;69.54
71917;BME280;59793;46.506;6.674;2023-04-30T02:25:15;97012.41;;;14.34;69.68
71917;BME280;59793;46.506;6.674;2023-04-30T02:27:41;96984.50;;;14.00;69.65
71917;BME280;59793;46.506;6.674;2023-04-30T02:30:06;96985.88;;;13.86;70.11
71917;BME280;59793;46.506;6.674;2023-04-30T02:32:32;96991.25;;;13.94;70.22
71917;BME280;59793;46.506;6.674;2023-04-30T02:34:57;96973.31;;;13.80;70.23
71917;BME280;59793;46.506;6.674;2023-04-30T02:37:23;96986.38;;;13.99;69.74
71917;BME280;59793;46.506;6.674;2023-04-30T02:39:48;96998.09;;;13.98;70.23
71917;BME280;59793;46.506;6.674;2023-04-30T02:42:14;96960.53;;;13.85;69.38
71917;BME280;59793;46.506;6.674;2023-04-30T02:44:39;96954.50;;;13.92;69.48
71917;BME280;59793;46.506;6.674;2023-04-30T02:47:05;97008.97;;;14.30;69.74
71917;BME280;59793;46.506;6.674;2023-04-30T02:49:30;97006.81;;;14.40;69.77
71917;BME280;59793;46.506;6.674;2023-04-30T02:51:56;97011.00;;;14.44;69.61
71917;BME280;59793;46.506;6.674;2023-04-30T02:54:21;96979.16;;;14.41;69.17
71917;BME280;59793;46.506;6.674;2023-04-30T02:56:47;96995.66;;;14.64;68.89
71917;BME280;59793;46.506;6.674;2023-04-30T02:59:12;96970.56;;;14.51;68.62
71917;BME280;59793;46.506;6.674;2023-04-30T03:01:38;96991.53;;;14.70;67.35
71917;BME280;59793;46.506;6.674;2023-04-30T03:04:03;96931.72;;;14.25;67.66
71917;BME280;59793;46.506;6.674;2023-04-30T03:06:29;96967.63;;;14.19;68.66
71917;BME280;59793;46.506;6.674;2023-04-30T03:08:55;96972.50;;;14.13;69.28
71917;BME280;59793;46.506;6.674;2023-04-30T03:11:21;97009.44;;;14.40;69.10
71917;BME280;59793;46.506;6.674;2023-04-30T03:13:46;96988.28;;;14.43;68.13
71917;BME280;59793;46.506;6.674;2023-04-30T03:16:16;96974.16;;;14.28;68.96
71917;BME280;59793;46.506;6.674;2023-04-30T03:18:41;97005.09;;;14.17;69.69
71917;BME280;59793;46.506;6.674;2023-04-30T03:21:06;96961.97;;;13.79;70.36
71917;BME280;59793;46.506;6.674;2023-04-30T03:23:32;96958.84;;;13.70;70.74
71917;BME280;59793;46.506;6.674;2023-04-30T03:25:57;96997.03;;;14.03;70.46
71917;BME280;59793;46.506;6.674;2023-04-30T03:28:22;96967.47;;;14.01;70.39
71917;BME280;59793;46.506;6.674;2023-04-30T03:30:48;96998.72;;;14.25;69.25
71917;BME280;59793;46.506;6.674;2023-04-30T03:33:13;96964.22;;;13.77;70.29
71917;BME280;59793;46.506;6.674;2023-04-30T03:35:39;96986.44;;;14.03;69.98
71917;BME280;59793;46.506;6.674;2023-04-30T03:38:04;96972.84;;;14.08;69.77
71917;BME280;59793;46.506;6.674;2023-04-30T03:40:29;96974.09;;;14.21;68.97
71917;BME280;59793;46.506;6.674;2023-04-30T03:42:55;96948.13;;;13.97;68.94
71917;BME280;59793;46.506;6.674;2023-04-30T03:45:20;96979.75;;;14.20;69.22
71917;BME280;59793;46.506;6.674;2023-04-30T03:47:45;96975.16;;;14.17;69.21
71917;BME280;59793;46.506;6.674;2023-04-30T03:50:11;96990.97;;;14.06;69.68
71917;BME280;59793;46.506;6.674;2023-04-30T03:52:36;97008.84;;;14.16;69.82
71917;BME280;59793;46.506;6.674;2023-04-30T03:55:02;96972.72;;;13.94;70.10
71917;BME280;59793;46.506;6.674;2023-04-30T03:57:28;97002.94;;;13.89;70.84
71917;BME280;59793;46.506;6.674;2023-04-30T03:59:54;96976.91;;;13.61;71.27
71917;BME280;59793;46.506;6.674;2023-04-30T04:02:19;97000.13;;;13.75;71.92
71917;BME280;59793;46.506;6.674;2023-04-30T04:04:46;96981.03;;;13.58;72.36
71917;BME280;59793;46.506;6.674;2023-04-30T04:07:11;96995.00;;;13.55;72.65
71917;BME280;59793;46.506;6.674;2023-04-30T04:09:37;97002.66;;;13.64;72.80
71917;BME280;59793;46.506;6.674;2023-04-30T04:12:02;97019.03;;;13.73;71.23
71917;BME280;59793;46.506;6.674;2023-04-30T04:14:28;97021.03;;;13.83;70.97
71917;BME280;59793;46.506;6.674;2023-04-30T04:16:53;97030.59;;;13.95;71.03
71917;BME280;59793;46.506;6.674;2023-04-30T04:19:18;97031.03;;;14.01;71.05
71917;BME280;59793;46.506;6.674;2023-04-30T04:21:44;97025.78;;;14.04;70.79
71917;BME280;59793;46.506;6.674;2023-04-30T04:24:09;97020.47;;;14.04;70.89
71917;BME280;59793;46.506;6.674;2023-04-30T04:26:35;97037.38;;;14.30;69.27
71917;BME280;59793;46.506;6.674;2023-04-30T04:29:04;97032.84;;;14.30;68.64
71917;BME280;59793;46.506;6.674;2023-04-30T04:31:30;97007.84;;;14.28;68.54
71917;BME280;59793;46.506;6.674;2023-04-30T04:33:58;97031.28;;;14.26;68.60
71917;BME280;59793;46.506;6.674;2023-04-30T04:36:25;96973.25;;;13.73;68.99
71917;BME280;59793;46.506;6.674;2023-04-30T04:38:54;97040.22;;;14.10;69.52
71917;BME280;59793;46.506;6.674;2023-04-30T04:41:22;97011.41;;;14.05;69.48
71917;BME280;59793;46.506;6.674;2023-04-30T04:43:48;97034.63;;;14.19;69.68
71917;BME280;59793;46.506;6.674;2023-04-30T04:46:14;96996.25;;;14.06;69.28
71917;BME280;59793;46.506;6.674;2023-04-30T04:48:41;97037.84;;;14.39;68.42
71917;BME280;59793;46.506;6.674;2023-04-30T04:51:08;97035.91;;;14.32;68.55
71917;BME280;59793;46.506;6.674;2023-04-30T04:53:33;97040.41;;;14.28;68.90
71917;BME280;59793;46.506;6.674;2023-04-30T04:55:59;97050.16;;;14.17;69.43
71917;BME280;59793;46.506;6.674;2023-04-30T04:58:24;97018.56;;;14.01;69.62
71917;BME280;59793;46.506;6.674;2023-04-30T05:00:50;97019.44;;;14.16;68.83
71917;BME280;59793;46.506;6.674;2023-04-30T05:03:15;97048.06;;;14.41;68.93
71917;BME280;59793;46.506;6.674;2023-04-30T05:05:41;97029.66;;;14.14;69.24
71917;BME280;59793;46.506;6.674;2023-04-30T05:08:07;97048.28;;;14.21;69.40
71917;BME280;59793;46.506;6.674;2023-04-30T05:10:32;97023.94;;;14.08;69.03
71917;BME280;59793;46.506;6.674;2023-04-30T05:12:59;96996.13;;;13.92;68.82
71917;BME280;59793;46.506;6.674;2023-04-30T05:15:24;97051.47;;;14.41;68.34
71917;BME280;59793;46.506;6.674;2023-04-30T05:17:49;97049.53;;;14.34;69.29
71917;BME280;59793;46.506;6.674;2023-04-30T05:20:15;97038.00;;;14.16;68.63
71917;BME280;59793;46.506;6.674;2023-04-30T05:22:40;97025.59;;;14.27;69.24
71917;BME280;59793;46.506;6.674;2023-04-30T05:25:06;97061.16;;;14.60;67.42
71917;BME280;59793;46.506;6.674;2023-04-30T05:27:31;97055.81;;;14.53;67.70
71917;BME280;59793;46.506;6.674;2023-04-30T05:29:57;97057.13;;;14.36;68.04
71917;BME280;59793;46.506;6.674;2023-04-30T05:32:22;97020.66;;;14.22;68.78
71917;BME280;59793;46.506;6.674;2023-04-30T05:34:48;97041.19;;;14.32;69.60
71917;BME280;59793;46.506;6.674;2023-04-30T05:37:14;97056.59;;;14.57;69.20
71917;BME280;59793;46.506;6.674;2023-04-30T05:39:40;97055.81;;;14.53;68.07
71917;BME280;59793;46.506;6.674;2023-04-30T05:42:06;97061.91;;;14.61;67.59
71917;BME280;59793;46.506;6.674;2023-04-30T05:44:31;97030.00;;;14.50;67.66
71917;BME280;59793;46.506;6.674;2023-04-30T05:46:56;97000.03;;;14.46;66.42
71917;BME280;59793;46.506;6.674;2023-04-30T05:49:22;97052.41;;;14.56;66.55
71917;BME280;59793;46.506;6.674;2023-04-30T05:51:47;97025.97;;;14.22;67.46
71917;BME280;59793;46.506;6.674;2023-04-30T05:54:12;97031.22;;;14.19;67.28
71917;BME280;59793;46.506;6.674;2023-04-30T05:56:38;97037.34;;;14.26;67.53
71917;BME280;59793;46.506;6.674;2023-04-30T05:59:03;97038.19;;;14.38;67.16
71917;BME280;59793;46.506;6.674;2023-04-30T06:01:28;97054.31;;;14.59;67.32
71917;BME280;59793;46.506;6.674;2023-04-30T06:03:57;97058.22;;;14.72;66.44
71917;BME280;59793;46.506;6.674;2023-04-30T06:06:25;97057.44;;;14.68;66.72
71917;BME280;59793;46.506;6.674;2023-04-30T06:08:51;97005.53;;;14.26;67.05
71917;BME280;59793;46.506;6.674;2023-04-30T06:11:16;97043.78;;;14.25;68.55
71917;BME280;59793;46.506;6.674;2023-04-30T06:13:41;97051.34;;;14.27;68.88
71917;BME280;59793;46.506;6.674;2023-04-30T06:16:07;97032.81;;;14.27;68.34
71917;BME280;59793;46.506;6.674;2023-04-30T06:18:32;97050.78;;;14.48;67.40
71917;BME280;59793;46.506;6.674;2023-04-30T06:20:58;97060.28;;;14.49;67.47
71917;BME280;59793;46.506;6.674;2023-04-30T06:23:23;97063.16;;;14.33;68.07
71917;BME280;59793;46.506;6.674;2023-04-30T06:25:49;97052.38;;;14.15;68.49
71917;BME280;59793;46.506;6.674;2023-04-30T06:28:14;97039.00;;;14.01;68.83
71917;BME280;59793;46.506;6.674;2023-04-30T06:30:40;97038.44;;;13.84;69.06
71917;BME280;59793;46.506;6.674;2023-04-30T06:33:05;97063.00;;;14.19;69.28
71917;BME280;59793;46.506;6.674;2023-04-30T06:35:31;97060.19;;;14.38;68.45
71917;BME280;59793;46.506;6.674;2023-04-30T06:37:56;97040.28;;;14.14;70.53
71917;BME280;59793;46.506;6.674;2023-04-30T06:40:22;97063.22;;;14.40;71.30
71917;BME280;59793;46.506;6.674;2023-04-30T06:42:47;97013.63;;;14.00;70.54
71917;BME280;59793;46.506;6.674;2023-04-30T06:45:13;97062.47;;;14.40;68.93
71917;BME280;59793;46.506;6.674;2023-04-30T06:47:39;97029.59;;;14.07;70.18
71917;BME280;59793;46.506;6.674;2023-04-30T06:50:07;97071.72;;;14.53;70.46
71917;BME280;59793;46.506;6.674;2023-04-30T06:52:33;97062.16;;;14.48;69.64
71917;BME280;59793;46.506;6.674;2023-04-30T06:54:58;97042.00;;;14.40;70.15
71917;BME280;59793;46.506;6.674;2023-04-30T06:57:25;97069.56;;;14.69;70.68
71917;BME280;59793;46.506;6.674;2023-04-30T06:59:51;97031.25;;;14.63;68.62
71917;BME280;59793;46.506;6.674;2023-04-30T07:02:17;97048.84;;;14.86;68.55
71917;BME280;59793;46.506;6.674;2023-04-30T07:04:42;97059.59;;;15.03;68.88
71917;BME280;59793;46.506;6.674;2023-04-30T07:07:08;97048.91;;;14.93;69.87
71917;BME280;59793;46.506;6.674;2023-04-30T07:09:33;97074.00;;;15.06;70.10
71917;BME280;59793;46.506;6.674;2023-04-30T07:11:59;97049.31;;;14.95;68.93
71917;BME280;59793;46.506;6.674;2023-04-30T07:14:26;97064.19;;;15.10;69.37
71917;BME280;59793;46.506;6.674;2023-04-30T07:16:51;97029.66;;;14.55;69.11
71917;BME280;59793;46.506;6.674;2023-04-30T07:19:17;97063.81;;;15.15;67.66
71917;BME280;59793;46.506;6.674;2023-04-30T07:21:43;97062.44;;;15.39;68.51
71917;BME280;59793;46.506;6.674;2023-04-30T07:24:08;97070.09;;;15.48;68.25
71917;BME280;59793;46.506;6.674;2023-04-30T07:26:34;97055.44;;;14.58;70.65
71917;BME280;59793;46.506;6.674;2023-04-30T07:29:00;97084.97;;;15.01;70.48
71917;BME280;59793;46.506;6.674;2023-04-30T07:31:26;97072.81;;;15.00;69.31
71917;BME280;59793;46.506;6.674;2023-04-30T07:33:51;97071.44;;;15.20;69.33
71917;BME280;59793;46.506;6.674;2023-04-30T07:36:17;97032.59;;;14.94;68.28
71917;BME280;59793;46.506;6.674;2023-04-30T07:38:42;97030.50;;;15.21;68.25
71917;BME280;59793;46.506;6.674;2023-04-30T07:41:08;97051.13;;;15.53;66.88
71917;BME280;59793;46.506;6.674;2023-04-30T07:43:34;97054.34;;;15.87;65.76
71917;BME280;59793;46.506;6.674;2023-04-30T07:46:00;97039.94;;;15.99;64.89
71917;BME280;59793;46.506;6.674;2023-04-30T07:48:25;97058.19;;;16.11;64.05
71917;BME280;59793;46.506;6.674;2023-04-30T07:50:50;97051.00;;;16.19;63.83
71917;BME280;59793;46.506;6.674;2023-04-30T07:53:16;97038.44;;;16.05;63.86
71917;BME280;59793;46.506;6.674;2023-04-30T07:55:41;97052.56;;;15.33;65.63
71917;BME280;59793;46.506;6.674;2023-04-30T07:58:06;97043.38;;;15.19;66.72
71917;BME280;59793;46.506;6.674;2023-04-30T08:00:32;97070.44;;;15.46;66.18
71917;BME280;59793;46.506;6.674;2023-04-30T08:02:58;97029.09;;;15.42;65.60
71917;BME280;59793;46.506;6.674;2023-04-30T08:05:24;97055.72;;;15.60;66.07
71917;BME280;59793;46.506;6.674;2023-04-30T08:07:49;97059.63;;;15.80;64.95
71917;BME280;59793;46.506;6.674;2023-04-30T08:10:15;97060.00;;;15.78;65.51
71917;BME280;59793;46.506;6.674;2023-04-30T08:12:40;97063.41;;;15.75;66.15
71917;BME280;59793;46.506;6.674;2023-04-30T08:15:06;97045.41;;;15.44;66.61
71917;BME280;59793;46.506;6.674;2023-04-30T08:17:32;97054.44;;;15.28;67.45
71917;BME280;59793;46.506;6.674;2023-04-30T08:19:58;97050.25;;;15.24;67.20
71917;BME280;59793;46.506;6.674;2023-04-30T08:22:24;97067.94;;;15.02;68.50
71917;BME280;59793;46.506;6.674;2023-04-30T08:24:49;97042.53;;;15.04;69.00
71917;BME280;59793;46.506;6.674;2023-04-30T08:27:15;97054.75;;;15.16;67.83
71917;BME280;59793;46.506;6.674;2023-04-30T08:29:40;97042.66;;;15.29;66.92
71917;BME280;59793;46.506;6.674;2023-04-30T08:32:06;97070.88;;;15.56;67.38
71917;BME280;59793;46.506;6.674;2023-04-30T08:34:31;97069.81;;;15.67;67.08
71917;BME280;59793;46.506;6.674;2023-04-30T08:36:57;97065.47;;;15.34;68.44
71917;BME280;59793;46.506;6.674;2023-04-30T08:39:23;97039.56;;;15.13;68.28
71917;BME280;59793;46.506;6.674;2023-04-30T08:41:55;97043.94;;;14.84;69.54
71917;BME280;59793;46.506;6.674;2023-04-30T08:44:22;97059.25;;;15.12;68.33
71917;BME280;59793;46.506;6.674;2023-04-30T08:46:53;97065.66;;;15.07;67.80
71917;BME280;59793;46.506;6.674;2023-04-30T08:49:20;97080.81;;;15.03;68.60
71917;BME280;59793;46.506;6.674;2023-04-30T08:51:46;97050.66;;;14.74;68.56
71917;BME280;59793;46.506;6.674;2023-04-30T08:54:12;97083.09;;;15.05;69.16
71917;BME280;59793;46.506;6.674;2023-04-30T08:56:39;97081.41;;;15.34;67.80
71917;BME280;59793;46.506;6.674;2023-04-30T08:59:05;97061.13;;;15.08;69.42
71917;BME280;59793;46.506;6.674;2023-04-30T09:01:30;97086.03;;;15.51;67.40
71917;BME280;59793;46.506;6.674;2023-04-30T09:03:56;97075.38;;;15.44;67.08
71917;BME280;59793;46.506;6.674;2023-04-30T09:06:21;97057.03;;;15.18;67.37
71917;BME280;59793;46.506;6.674;2023-04-30T09:08:48;97083.72;;;15.43;66.59
71917;BME280;59793;46.506;6.674;2023-04-30T09:11:30;97050.59;;;15.22;66.26
71917;BME280;59793;46.506;6.674;2023-04-30T09:14:00;97061.19;;;15.19;66.05
71917;BME280;59793;46.506;6.674;2023-04-30T09:16:27;97095.72;;;15.26;67.04
71917;BME280;59793;46.506;6.674;2023-04-30T09:18:57;97063.16;;;15.33;65.86
71917;BME280;59793;46.506;6.674;2023-04-30T09:21:33;97074.78;;;15.72;65.32
71917;BME280;59793;46.506;6.674;2023-04-30T09:24:01;97093.88;;;16.03;64.53
71917;BME280;59793;46.506;6.674;2023-04-30T09:26:32;97082.81;;;15.87;64.29
71917;BME280;59793;46.506;6.674;2023-04-30T09:28:58;97091.84;;;15.75;64.23
71917;BME280;59793;46.506;6.674;2023-04-30T09:31:24;97084.66;;;15.75;64.40
71917;BME280;59793;46.506;6.674;2023-04-30T09:33:50;97079.34;;;15.79;64.15
71917;BME280;59793;46.506;6.674;2023-04-30T09:36:16;97091.44;;;15.66;65.22
71917;BME280;59793;46.506;6.674;2023-04-30T09:38:42;97099.47;;;15.80;66.65
71917;BME280;59793;46.506;6.674;2023-04-30T09:41:19;97093.88;;;16.10;65.06
71917;BME280;59793;46.506;6.674;2023-04-30T09:43:45;97078.28;;;15.98;63.67
71917;BME280;59793;46.506;6.674;2023-04-30T09:46:10;97074.25;;;15.49;65.81
71917;BME280;59793;46.506;6.674;2023-04-30T09:48:40;97097.47;;;15.63;66.82
71917;BME280;59793;46.506;6.674;2023-04-30T09:51:06;97103.50;;;15.52;67.75
71917;BME280;59793;46.506;6.674;2023-04-30T09:53:32;97085.44;;;15.76;67.24
71917;BME280;59793;46.506;6.674;2023-04-30T09:56:01;97109.34;;;15.80;67.55
71917;BME280;59793;46.506;6.674;2023-04-30T09:58:35;97085.19;;;15.40;69.65
71917;BME280;59793;46.506;6.674;2023-04-30T10:01:04;97084.03;;;14.79;70.00
71917;BME280;59793;46.506;6.674;2023-04-30T10:03:31;97089.25;;;14.68;70.83
71917;BME280;59793;46.506;6.674;2023-04-30T10:05:58;97106.81;;;14.83;71.40
71917;BME280;59793;46.506;6.674;2023-04-30T10:08:30;97089.91;;;15.02;68.99
71917;BME280;59793;46.506;6.674;2023-04-30T10:10:58;97079.72;;;15.12;69.23
71917;BME280;59793;46.506;6.674;2023-04-30T10:13:30;97076.75;;;15.20;68.72
71917;BME280;59793;46.506;6.674;2023-04-30T10:15:58;97087.06;;;15.33;67.14
71917;BME280;59793;46.506;6.674;2023-04-30T10:18:33;97068.47;;;15.29;68.69
71917;BME280;59793;46.506;6.674;2023-04-30T10:21:02;97106.00;;;15.27;70.11
71917;BME280;59793;46.506;6.674;2023-04-30T10:23:29;97075.78;;;14.88;69.97
71917;BME280;59793;46.506;6.674;2023-04-30T10:25:55;97101.34;;;15.10;70.89
71917;BME280;59793;46.506;6.674;2023-04-30T10:28:22;97079.31;;;15.06;68.88
71917;BME280;59793;46.506;6.674;2023-04-30T10:30:49;97096.16;;;15.32;68.98
71917;BME280;59793;46.506;6.674;2023-04-30T10:33:25;97101.41;;;15.21;69.52
71917;BME280;59793;46.506;6.674;2023-04-30T10:35:58;97091.13;;;15.16;68.58
71917;BME280;59793;46.506;6.674;2023-04-30T10:38:26;97070.69;;;15.20;68.95
71917;BME280;59793;46.506;6.674;2023-04-30T10:40:56;97066.97;;;15.32;68.95
71917;BME280;59793;46.506;6.674;2023-04-30T10:43:25;97098.34;;;15.81;66.99
71917;BME280;59793;46.506;6.674;2023-04-30T10:45:51;97058.97;;;15.24;68.22
71917;BME280;59793;46.506;6.674;2023-04-30T10:48:17;97066.69;;;15.58;67.92
71917;BME280;59793;46.506;6.674;2023-04-30T10:50:50;97082.22;;;15.45;67.78
71917;BME280;59793;46.506;6.674;2023-04-30T10:53:18;97044.09;;;15.09;68.48
71917;BME280;59793;46.506;6.674;2023-04-30T10:56:03;97093.13;;;15.33;67.94
71917;BME280;59793;46.506;6.674;2023-04-30T10:58:37;97079.91;;;15.44;67.05
71917;BME280;59793;46.506;6.674;2023-04-30T11:01:05;97087.13;;;15.43;67.07
71917;BME280;59793;46.506;6.674;2023-04-30T11:03:33;97090.53;;;15.44;66.84
71917;BME280;59793;46.506;6.674;2023-04-30T11:06:00;97087.47;;;15.38;67.70
71917;BME280;59793;46.506;6.674;2023-04-30T11:08:35;97053.00;;;15.45;66.08
71917;BME280;59793;46.506;6.674;2023-04-30T11:11:01;97082.47;;;16.02;65.65
71917;BME280;59793;46.506;6.674;2023-04-30T11:13:43;97092.34;;;16.02;65.50
71917;BME280;59793;46.506;6.674;2023-04-30T11:16:09;97075.63;;;15.98;65.37
71917;BME280;59793;46.506;6.674;2023-04-30T11:18:43;97074.91;;;16.12;64.41
71917;BME280;59793;46.506;6.674;2023-04-30T11:21:09;97083.16;;;15.82;65.42
71917;BME280;59793;46.506;6.674;2023-04-30T11:23:35;97080.88;;;15.73;65.67
71917;BME280;59793;46.506;6.674;2023-04-30T11:26:01;97062.13;;;15.48;65.88
71917;BME280;59793;46.506;6.674;2023-04-30T11:28:27;97077.69;;;15.53;65.85
71917;BME280;59793;46.506;6.674;2023-04-30T11:30:57;97078.19;;;15.69;66.34
71917;BME280;59793;46.506;6.674;2023-04-30T11:33:24;97051.25;;;15.74;64.89
71917;BME280;59793;46.506;6.674;2023-04-30T11:35:50;97079.06;;;16.02;63.50
71917;BME280;59793;46.506;6.674;2023-04-30T11:38:18;97085.16;;;16.17;64.33
71917;BME280;59793;46.506;6.674;2023-04-30T11:40:43;97052.41;;;15.73;64.48
71917;BME280;59793;46.506;6.674;2023-04-30T11:46:09;97090.50;;;16.28;64.72
71917;BME280;59793;46.506;6.674;2023-04-30T11:51:17;97090.25;;;15.60;67.12
71917;BME280;59793;46.506;6.674;2023-04-30T11:53:48;97090.56;;;15.47;65.96
71917;BME280;59793;46.506;6.674;2023-04-30T11:56:20;97060.66;;;15.61;67.49
71917;BME280;59793;46.506;6.674;2023-04-30T11:58:47;97089.63;;;15.81;67.94
71917;BME280;59793;46.506;6.674;2023-04-30T12:01:13;97090.88;;;16.12;66.75
71917;BME280;59793;46.506;6.674;2023-04-30T12:03:49;97091.16;;;15.89;65.18
71917;BME280;59793;46.506;6.674;2023-04-30T12:06:25;97086.22;;;15.84;65.75
71917;BME280;59793;46.506;6.674;2023-04-30T12:08:56;97089.34;;;16.18;65.24
71917;BME280;59793;46.506;6.674;2023-04-30T12:11:29;97084.47;;;16.45;66.01
71917;BME280;59793;46.506;6.674;2023-04-30T12:14:06;97081.06;;;16.55;64.70
71917;BME280;59793;46.506;6.674;2023-04-30T12:16:46;97079.19;;;16.91;64.50
71917;BME280;59793;46.506;6.674;2023-04-30T12:19:18;97065.50;;;17.07;62.55
71917;BME280;59793;46.506;6.674;2023-04-30T12:21:45;97080.34;;;16.80;62.74
71917;BME280;59793;46.506;6.674;2023-04-30T12:24:14;97085.66;;;17.08;62.05
71917;BME280;59793;46.506;6.674;2023-04-30T12:26:41;97091.00;;;16.87;62.79
71917;BME280;59793;46.506;6.674;2023-04-30T12:29:08;97076.19;;;16.86;63.13
71917;BME280;59793;46.506;6.674;2023-04-30T12:31:36;97078.44;;;17.12;62.35
71917;BME280;59793;46.506;6.674;2023-04-30T12:34:05;97095.16;;;17.02;60.17
71917;BME280;59793;46.506;6.674;2023-04-30T12:36:31;97081.06;;;17.27;60.83
71917;BME280;59793;46.506;6.674;2023-04-30T12:39:07;97080.28;;;17.33;60.34
71917;BME280;59793;46.506;6.674;2023-04-30T12:41:47;97086.34;;;17.41;60.26
71917;BME280;59793;46.506;6.674;2023-04-30T12:44:26;97075.78;;;17.05;59.65
71917;BME280;59793;46.506;6.674;2023-04-30T12:46:53;97071.91;;;17.46;58.74
71917;BME280;59793;46.506;6.674;2023-04-30T12:49:32;97082.88;;;17.65;58.40
71917;BME280;59793;46.506;6.674;2023-04-30T12:52:08;97076.75;;;17.79;57.57
71917;BME280;59793;46.506;6.674;2023-04-30T12:54:34;97044.44;;;17.56;57.79
71917;BME280;59793;46.506;6.674;2023-04-30T12:57:04;97087.44;;;17.68;57.87
71917;BME280;59793;46.506;6.674;2023-04-30T12:59:32;97068.75;;;17.83;57.66
71917;BME280;59793;46.506;6.674;2023-04-30T13:02:12;97082.03;;;17.90;57.46
71917;BME280;59793;46.506;6.674;2023-04-30T13:04:40;97053.38;;;18.08;56.81
71917;BME280;59793;46.506;6.674;2023-04-30T13:07:06;97073.88;;;18.22;56.30
71917;BME280;59793;46.506;6.674;2023-04-30T13:09:32;97079.31;;;18.01;57.18
71917;BME280;59793;46.506;6.674;2023-04-30T13:11:58;97082.28;;;18.21;57.17
71917;BME280;59793;46.506;6.674;2023-04-30T13:14:24;97061.75;;;18.14;57.23
71917;BME280;59793;46.506;6.674;2023-04-30T13:16:49;97048.66;;;17.53;57.99
71917;BME280;59793;46.506;6.674;2023-04-30T13:19:14;97017.91;;;17.27;57.93
71917;BME280;59793;46.506;6.674;2023-04-30T13:21:40;97064.91;;;17.87;56.74
71917;BME280;59793;46.506;6.674;2023-04-30T13:24:05;97039.84;;;17.71;56.85
71917;BME280;59793;46.506;6.674;2023-04-30T13:26:31;97025.03;;;17.55;57.39